createdAt,value
2023-03-20T00:00:09.509Z,99.99
2023-03-20T00:01:09.516Z,99.99
2023-03-20T00:02:09.504Z,99.99
2023-03-20T00:03:09.586Z,99.99
2023-03-20T00:04:09.624Z,99.99
2023-03-20T00:05:09.492Z,99.99
2023-03-20T00:06:09.451Z,99.99
2023-03-20T00:07:09.395Z,99.99
2023-03-20T00:08:09.384Z,99.99
2023-03-20T00:09:09.398Z,99.99
2023-03-20T00:10:09.405Z,99.99
2023-03-20T00:11:09.398Z,99.99
2023-03-20T00:12:09.385Z,99.99
2023-03-20T00:13:09.384Z,99.99
2023-03-20T00:14:09.383Z,99.99
2023-03-20T00:15:09.318Z,99.99
2023-03-20T00:16:10.419Z,99.99
2023-03-20T00:17:09.348Z,99.99
2023-03-20T00:18:09.279Z,99.99
2023-03-20T00:19:09.258Z,99.99
2023-03-20T00:20:09.262Z,99.99
2023-03-20T00:21:09.276Z,99.99
2023-03-20T00:22:09.252Z,99.99
2023-03-20T00:23:09.258Z,99.99
2023-03-20T00:24:09.264Z,99.99
2023-03-20T00:25:09.192Z,99.99
2023-03-20T00:26:09.210Z,99.99
2023-03-20T00:27:09.233Z,99.99
2023-03-20T00:28:09.186Z,99.99
2023-03-20T00:29:09.187Z,99.98
2023-03-20T00:30:09.222Z,99.88
2023-03-20T00:31:09.197Z,99.77
2023-03-20T00:32:09.167Z,99.67
2023-03-20T00:33:09.149Z,99.93
2023-03-20T00:34:09.133Z,99.88
2023-03-20T00:35:09.163Z,99.99
2023-03-20T00:36:09.165Z,99.99
2023-03-20T00:37:09.062Z,99.99
2023-03-20T00:38:09.055Z,99.99
2023-03-20T00:39:09.069Z,99.99
2023-03-20T00:40:09.079Z,99.99
2023-03-20T00:41:09.026Z,99.99
2023-03-20T00:42:09.077Z,99.99
2023-03-20T00:43:09.025Z,99.99
2023-03-20T00:44:09.003Z,99.99
2023-03-20T00:45:08.992Z,99.99
2023-03-20T00:46:09.009Z,99.99
2023-03-20T00:47:09.060Z,99.99
2023-03-20T00:48:08.943Z,99.99
2023-03-20T00:49:09.944Z,99.99
2023-03-20T00:50:08.946Z,99.99
2023-03-20T00:51:08.942Z,99.99
2023-03-20T00:52:08.893Z,99.99
2023-03-20T00:53:09.776Z,99.99
2023-03-20T00:54:08.884Z,99.99
2023-03-20T00:55:08.866Z,99.99
2023-03-20T00:56:08.878Z,99.99
2023-03-20T00:57:08.872Z,99.99
2023-03-20T00:58:08.882Z,99.99
2023-03-20T00:59:08.832Z,99.99
2023-03-20T01:00:08.811Z,99.99
2023-03-20T01:01:09.383Z,99.99
2023-03-20T01:02:08.889Z,99.99
2023-03-20T01:03:08.769Z,99.99
2023-03-20T01:04:08.776Z,99.99
2023-03-20T01:05:08.744Z,99.99
2023-03-20T01:06:08.753Z,99.99
2023-03-20T01:07:08.743Z,99.99
2023-03-20T01:08:08.746Z,99.99
2023-03-20T01:09:08.708Z,99.99
2023-03-20T01:10:08.708Z,99.99
2023-03-20T01:11:08.676Z,99.99
2023-03-20T01:12:08.680Z,99.99
2023-03-20T01:13:08.683Z,99.99
2023-03-20T01:14:08.684Z,99.99
2023-03-20T01:15:08.685Z,99.99
2023-03-20T01:16:09.340Z,99.99
2023-03-20T01:17:08.640Z,99.99
2023-03-20T01:18:08.613Z,99.99
2023-03-20T01:19:08.612Z,99.99
2023-03-20T01:20:08.570Z,99.99
2023-03-20T01:21:08.566Z,99.99
2023-03-20T01:22:08.590Z,99.99
2023-03-20T01:23:08.583Z,99.99
2023-03-20T01:24:08.575Z,99.99
2023-03-20T01:25:08.548Z,99.99
2023-03-20T01:26:08.554Z,99.99
2023-03-20T01:27:08.502Z,99.99
2023-03-20T01:28:08.500Z,99.99
2023-03-20T01:29:08.519Z,99.99
2023-03-20T01:30:08.909Z,99.99
2023-03-20T01:31:08.515Z,99.99
2023-03-20T01:32:08.535Z,99.99
2023-03-20T01:33:08.476Z,99.99
2023-03-20T01:34:08.441Z,99.99
2023-03-20T01:35:08.476Z,99.99
2023-03-20T01:36:08.467Z,99.99
2023-03-20T01:37:08.438Z,99.99
2023-03-20T01:38:08.368Z,99.99
2023-03-20T01:39:08.542Z,99.99
2023-03-20T01:40:08.384Z,99.99
2023-03-20T01:41:08.365Z,99.99
2023-03-20T01:42:08.365Z,99.99
2023-03-20T01:43:08.371Z,99.99
2023-03-20T01:44:08.309Z,99.99
2023-03-20T01:45:08.392Z,99.99
2023-03-20T01:46:08.507Z,99.99
2023-03-20T01:47:08.361Z,99.99
2023-03-20T01:48:08.304Z,99.99
2023-03-20T01:49:08.254Z,99.99
2023-03-20T01:50:08.313Z,99.99
2023-03-20T01:51:08.260Z,99.99
2023-03-20T01:52:08.266Z,99.99
2023-03-20T01:53:08.273Z,99.99
2023-03-20T01:54:08.249Z,99.99
2023-03-20T01:55:08.181Z,99.99
2023-03-20T01:56:08.174Z,99.99
2023-03-20T01:57:08.825Z,99.99
2023-03-20T01:58:08.171Z,99.99
2023-03-20T01:59:08.209Z,99.99
2023-03-20T02:00:08.132Z,99.99
2023-03-20T02:01:08.171Z,99.99
2023-03-20T02:02:08.119Z,99.99
2023-03-20T02:03:08.141Z,99.99
2023-03-20T02:04:08.112Z,99.99
2023-03-20T02:05:08.245Z,99.99
2023-03-20T02:06:08.127Z,99.99
2023-03-20T02:07:08.068Z,99.99
2023-03-20T02:08:08.086Z,99.99
2023-03-20T02:09:08.053Z,99.99
2023-03-20T02:10:08.056Z,99.99
2023-03-20T02:11:08.077Z,99.99
2023-03-20T02:12:08.016Z,99.99
2023-03-20T02:13:08.009Z,99.99
2023-03-20T02:14:08.011Z,99.99
2023-03-20T02:15:07.988Z,99.99
2023-03-20T02:16:08.138Z,99.99
2023-03-20T02:17:07.938Z,99.99
2023-03-20T02:18:08.005Z,99.99
2023-03-20T02:19:07.952Z,99.99
2023-03-20T02:20:08.838Z,99.99
2023-03-20T02:21:07.932Z,99.99
2023-03-20T02:22:07.937Z,99.99
2023-03-20T02:23:07.953Z,99.99
2023-03-20T02:24:07.952Z,99.99
2023-03-20T02:25:07.879Z,99.99
2023-03-20T02:26:07.862Z,99.99
2023-03-20T02:27:07.860Z,99.99
2023-03-20T02:28:07.862Z,99.99
2023-03-20T02:29:07.876Z,99.99
2023-03-20T02:30:07.842Z,99.99
2023-03-20T02:31:07.890Z,99.99
2023-03-20T02:32:07.794Z,99.99
2023-03-20T02:33:07.882Z,99.99
2023-03-20T02:34:07.801Z,99.99
2023-03-20T02:35:07.863Z,99.99
2023-03-20T02:36:07.853Z,99.99
2023-03-20T02:37:07.726Z,99.99
2023-03-20T02:38:07.775Z,99.99
2023-03-20T02:39:07.749Z,99.99
2023-03-20T02:40:07.676Z,99.99
2023-03-20T02:41:07.695Z,99.99
2023-03-20T02:42:07.761Z,99.99
2023-03-20T02:43:07.665Z,99.99
2023-03-20T02:44:07.690Z,99.99
2023-03-20T02:45:07.678Z,99.99
2023-03-20T02:46:07.690Z,99.99
2023-03-20T02:47:07.614Z,99.99
2023-03-20T02:48:07.625Z,99.99
2023-03-20T02:49:07.660Z,99.99
2023-03-20T02:50:07.607Z,99.99
2023-03-20T02:51:07.650Z,99.99
2023-03-20T02:52:07.660Z,99.99
2023-03-20T02:53:07.557Z,99.99
2023-03-20T02:54:07.538Z,99.99
2023-03-20T02:55:08.370Z,99.99
2023-03-20T02:56:07.559Z,99.99
2023-03-20T02:57:07.595Z,99.99
2023-03-20T02:58:07.561Z,99.99
2023-03-20T02:59:07.498Z,99.99
2023-03-20T03:00:07.518Z,99.99
2023-03-20T03:01:07.600Z,99.99
2023-03-20T03:02:07.482Z,99.99
2023-03-20T03:03:07.492Z,99.99
2023-03-20T03:04:07.434Z,99.99
2023-03-20T03:05:07.416Z,99.99
2023-03-20T03:06:07.414Z,99.99
2023-03-20T03:07:07.416Z,99.99
2023-03-20T03:08:07.523Z,99.99
2023-03-20T03:09:07.369Z,99.99
2023-03-20T03:10:07.345Z,99.99
2023-03-20T03:11:07.385Z,99.99
2023-03-20T03:12:07.390Z,99.99
2023-03-20T03:13:07.363Z,99.99
2023-03-20T03:14:07.304Z,99.99
2023-03-20T03:15:07.302Z,99.99
2023-03-20T03:16:07.450Z,99.99
2023-03-20T03:17:07.288Z,99.99
2023-03-20T03:18:07.294Z,99.99
2023-03-20T03:19:07.300Z,99.99
2023-03-20T03:20:07.303Z,99.99
2023-03-20T03:21:07.233Z,99.99
2023-03-20T03:22:07.220Z,99.99
2023-03-20T03:23:07.243Z,99.99
2023-03-20T03:24:07.237Z,99.99
2023-03-20T03:25:07.175Z,99.99
2023-03-20T03:26:07.161Z,99.99
2023-03-20T03:27:07.389Z,99.99
2023-03-20T03:28:07.162Z,99.99
2023-03-20T03:29:07.164Z,99.99
2023-03-20T03:30:07.189Z,99.99
2023-03-20T03:31:07.232Z,99.99
2023-03-20T03:32:07.105Z,99.99
2023-03-20T03:33:07.158Z,99.99
2023-03-20T03:34:07.095Z,99.99
2023-03-20T03:35:07.114Z,99.99
2023-03-20T03:36:07.130Z,99.99
2023-03-20T03:37:07.057Z,99.99
2023-03-20T03:38:07.045Z,99.99
2023-03-20T03:39:07.048Z,99.99
2023-03-20T03:40:07.039Z,99.99
2023-03-20T03:41:07.044Z,99.99
2023-03-20T03:42:07.057Z,99.99
2023-03-20T03:43:06.987Z,99.99
2023-03-20T03:44:07.002Z,99.99
2023-03-20T03:45:06.962Z,99.99
2023-03-20T03:46:07.126Z,99.99
2023-03-20T03:47:06.932Z,99.99
2023-03-20T03:48:06.918Z,99.99
2023-03-20T03:49:07.009Z,99.99
2023-03-20T03:50:06.936Z,99.99
2023-03-20T03:51:06.910Z,99.99
2023-03-20T03:52:06.897Z,99.99
2023-03-20T03:53:06.886Z,99.99
2023-03-20T03:54:06.952Z,99.99
2023-03-20T03:55:06.906Z,99.99
2023-03-20T03:56:07.381Z,99.99
2023-03-20T03:57:06.875Z,99.99
2023-03-20T03:58:06.851Z,99.99
2023-03-20T03:59:06.869Z,99.99
2023-03-20T04:00:06.885Z,99.99
2023-03-20T04:01:06.881Z,99.99
2023-03-20T04:02:06.878Z,99.99
2023-03-20T04:03:06.776Z,99.99
2023-03-20T04:04:06.793Z,99.99
2023-03-20T04:05:06.939Z,99.99
2023-03-20T04:06:06.937Z,99.99
2023-03-20T04:07:06.737Z,99.99
2023-03-20T04:08:06.798Z,99.99
2023-03-20T04:09:06.723Z,99.99
2023-03-20T04:10:06.870Z,99.99
2023-03-20T04:11:06.680Z,99.99
2023-03-20T04:12:06.647Z,99.99
2023-03-20T04:13:06.800Z,99.99
2023-03-20T04:14:06.664Z,99.99
2023-03-20T04:15:06.664Z,99.99
2023-03-20T04:16:06.664Z,99.99
2023-03-20T04:17:06.604Z,99.99
2023-03-20T04:18:06.633Z,99.99
2023-03-20T04:19:06.592Z,99.99
2023-03-20T04:20:06.599Z,99.99
2023-03-20T04:21:06.625Z,99.99
2023-03-20T04:22:06.548Z,99.99
2023-03-20T04:23:06.548Z,99.99
2023-03-20T04:24:06.562Z,99.99
2023-03-20T04:25:06.538Z,99.99
2023-03-20T04:26:06.549Z,99.99
2023-03-20T04:27:06.500Z,99.99
2023-03-20T04:28:06.578Z,99.99
2023-03-20T04:29:06.477Z,99.99
2023-03-20T04:30:06.507Z,99.82
2023-03-20T04:31:06.480Z,99.82
2023-03-20T04:32:06.474Z,99.99
2023-03-20T04:33:06.482Z,99.93
2023-03-20T04:34:06.419Z,99.99
2023-03-20T04:35:06.515Z,99.99
2023-03-20T04:36:06.513Z,99.99
2023-03-20T04:37:06.379Z,99.99
2023-03-20T04:38:06.418Z,99.99
2023-03-20T04:39:06.357Z,99.99
2023-03-20T04:40:06.567Z,99.99
2023-03-20T04:41:06.369Z,99.99
2023-03-20T04:42:06.346Z,99.99
2023-03-20T04:43:06.338Z,99.99
2023-03-20T04:44:06.366Z,99.99
2023-03-20T04:45:06.356Z,99.99
2023-03-20T04:46:06.363Z,99.99
2023-03-20T04:47:06.300Z,99.99
2023-03-20T04:48:06.288Z,99.99
2023-03-20T04:49:06.456Z,99.99
2023-03-20T04:50:06.307Z,99.99
2023-03-20T04:51:06.239Z,99.99
2023-03-20T04:52:06.212Z,99.99
2023-03-20T04:53:06.371Z,99.99
2023-03-20T04:54:06.230Z,99.99
2023-03-20T04:55:06.168Z,99.99
2023-03-20T04:56:06.161Z,99.99
2023-03-20T04:57:06.253Z,99.99
2023-03-20T04:58:06.155Z,99.99
2023-03-20T04:59:06.185Z,99.99
2023-03-20T05:00:06.169Z,99.99
2023-03-20T05:01:06.186Z,99.99
2023-03-20T05:02:06.102Z,99.99
2023-03-20T05:03:06.490Z,99.99
2023-03-20T05:04:06.165Z,99.99
2023-03-20T05:05:06.130Z,99.99
2023-03-20T05:06:06.105Z,99.99
2023-03-20T05:07:06.036Z,99.99
2023-03-20T05:08:06.039Z,99.99
2023-03-20T05:09:06.055Z,99.99
2023-03-20T05:10:06.027Z,99.99
2023-03-20T05:11:06.038Z,99.99
2023-03-20T05:12:05.979Z,99.99
2023-03-20T05:13:06.036Z,99.99
2023-03-20T05:14:06.994Z,99.99
2023-03-20T05:15:05.982Z,99.99
2023-03-20T05:16:05.967Z,99.99
2023-03-20T05:17:05.963Z,99.99
2023-03-20T05:18:05.910Z,99.99
2023-03-20T05:19:05.899Z,99.99
2023-03-20T05:20:05.973Z,99.99
2023-03-20T05:21:05.897Z,99.99
2023-03-20T05:22:05.900Z,99.99
2023-03-20T05:23:06.431Z,99.99
2023-03-20T05:24:05.845Z,99.99
2023-03-20T05:25:05.858Z,99.99
2023-03-20T05:26:05.852Z,99.99
2023-03-20T05:27:05.944Z,99.99
2023-03-20T05:28:05.848Z,99.99
2023-03-20T05:29:05.781Z,99.99
2023-03-20T05:30:05.854Z,99.99
2023-03-20T05:31:05.846Z,99.99
2023-03-20T05:32:05.804Z,99.99
2023-03-20T05:33:05.794Z,99.99
2023-03-20T05:34:05.871Z,99.99
2023-03-20T05:35:05.810Z,99.99
2023-03-20T05:36:05.924Z,99.99
2023-03-20T05:37:05.697Z,99.99
2023-03-20T05:38:05.713Z,99.99
2023-03-20T05:39:05.723Z,99.99
2023-03-20T05:40:05.717Z,99.99
2023-03-20T05:41:05.736Z,99.99
2023-03-20T05:42:05.798Z,99.99
2023-03-20T05:43:05.642Z,99.99
2023-03-20T05:44:05.674Z,99.99
2023-03-20T05:45:05.647Z,99.99
2023-03-20T05:46:05.859Z,99.99
2023-03-20T05:47:05.618Z,99.99
2023-03-20T05:48:05.602Z,99.99
2023-03-20T05:49:05.600Z,99.99
2023-03-20T05:50:05.613Z,99.99
2023-03-20T05:51:05.587Z,99.99
2023-03-20T05:52:05.525Z,99.99
2023-03-20T05:53:05.546Z,99.99
2023-03-20T05:54:05.563Z,99.99
2023-03-20T05:55:05.546Z,99.99
2023-03-20T05:56:05.611Z,99.99
2023-03-20T05:57:05.600Z,99.99
2023-03-20T05:58:05.480Z,99.99
2023-03-20T05:59:05.476Z,99.99
2023-03-20T06:00:05.485Z,99.99
2023-03-20T06:01:05.452Z,99.99
2023-03-20T06:02:05.480Z,99.99
2023-03-20T06:03:05.552Z,99.99
2023-03-20T06:04:05.497Z,99.99
2023-03-20T06:05:05.390Z,99.99
2023-03-20T06:06:05.397Z,99.99
2023-03-20T06:07:05.393Z,99.99
2023-03-20T06:08:05.369Z,99.99
2023-03-20T06:09:05.422Z,99.99
2023-03-20T06:10:05.349Z,99.99
2023-03-20T06:11:05.323Z,99.99
2023-03-20T06:12:05.359Z,99.99
2023-03-20T06:13:05.331Z,99.99
2023-03-20T06:14:05.339Z,99.99
2023-03-20T06:15:05.275Z,99.99
2023-03-20T06:16:05.389Z,99.99
2023-03-20T06:17:05.462Z,99.99
2023-03-20T06:18:05.298Z,99.99
2023-03-20T06:19:05.276Z,99.99
2023-03-20T06:20:05.240Z,99.99
2023-03-20T06:21:05.217Z,99.99
2023-03-20T06:22:05.227Z,99.99
2023-03-20T06:23:05.199Z,99.99
2023-03-20T06:24:05.205Z,99.99
2023-03-20T06:25:05.207Z,99.99
2023-03-20T06:26:05.231Z,99.99
2023-03-20T06:27:05.155Z,99.99
2023-03-20T06:28:05.135Z,99.99
2023-03-20T06:29:05.173Z,99.99
2023-03-20T06:30:05.153Z,99.99
2023-03-20T06:31:05.194Z,99.99
2023-03-20T06:32:05.165Z,99.99
2023-03-20T06:33:05.144Z,99.99
2023-03-20T06:34:05.120Z,99.99
2023-03-20T06:35:05.125Z,99.99
2023-03-20T06:36:05.125Z,99.99
2023-03-20T06:37:05.023Z,99.99
2023-03-20T06:38:05.025Z,99.99
2023-03-20T06:39:05.003Z,99.99
2023-03-20T06:40:05.136Z,99.99
2023-03-20T06:41:05.013Z,99.99
2023-03-20T06:42:05.017Z,99.99
2023-03-20T06:43:04.955Z,99.99
2023-03-20T06:44:04.964Z,99.99
2023-03-20T06:45:04.971Z,99.99
2023-03-20T06:46:04.943Z,99.99
2023-03-20T06:47:05.020Z,99.99
2023-03-20T06:48:04.949Z,99.99
2023-03-20T06:49:04.893Z,99.99
2023-03-20T06:50:05.008Z,99.99
2023-03-20T06:51:04.932Z,99.99
2023-03-20T06:52:04.878Z,99.99
2023-03-20T06:53:04.905Z,99.99
2023-03-20T06:54:05.002Z,99.99
2023-03-20T06:55:04.900Z,99.62
2023-03-20T06:56:04.929Z,99.57
2023-03-20T06:57:04.924Z,99.67
2023-03-20T06:58:04.809Z,99.82
2023-03-20T06:59:04.852Z,98.79
2023-03-20T07:00:04.838Z,99.21
2023-03-20T07:01:04.835Z,99.26
2023-03-20T07:02:04.879Z,99.41
2023-03-20T07:03:04.806Z,99.41
2023-03-20T07:04:04.756Z,99.21
2023-03-20T07:05:04.887Z,99.77
2023-03-20T07:06:04.707Z,99.47
2023-03-20T07:07:04.733Z,99.26
2023-03-20T07:08:04.688Z,98.85
2023-03-20T07:09:04.740Z,99.47
2023-03-20T07:10:04.701Z,98.96
2023-03-20T07:11:04.655Z,99.16
2023-03-20T07:12:04.779Z,99.51
2023-03-20T07:13:04.636Z,99.51
2023-03-20T07:14:04.644Z,99.16
2023-03-20T07:15:04.643Z,99.00
2023-03-20T07:16:05.241Z,99.16
2023-03-20T07:17:04.588Z,98.65
2023-03-20T07:18:04.654Z,98.69
2023-03-20T07:19:04.577Z,98.49
2023-03-20T07:20:04.577Z,98.59
2023-03-20T07:21:04.570Z,99.51
2023-03-20T07:22:04.583Z,99.51
2023-03-20T07:23:04.533Z,98.75
2023-03-20T07:24:04.544Z,98.54
2023-03-20T07:25:04.944Z,98.75
2023-03-20T07:26:04.523Z,99.62
2023-03-20T07:27:04.521Z,98.96
2023-03-20T07:28:04.478Z,98.24
2023-03-20T07:29:04.465Z,98.44
2023-03-20T07:30:04.439Z,98.54
2023-03-20T07:31:04.493Z,98.85
2023-03-20T07:32:05.402Z,98.65
2023-03-20T07:33:04.511Z,98.44
2023-03-20T07:34:04.463Z,98.60
2023-03-20T07:35:04.386Z,98.60
2023-03-20T07:36:04.536Z,98.50
2023-03-20T07:37:04.381Z,98.25
2023-03-20T07:38:04.381Z,98.60
2023-03-20T07:39:04.385Z,98.60
2023-03-20T07:40:04.366Z,97.67
2023-03-20T07:41:04.346Z,97.83
2023-03-20T07:42:04.318Z,97.27
2023-03-20T07:43:04.316Z,97.73
2023-03-20T07:44:04.338Z,97.53
2023-03-20T07:45:04.262Z,96.81
2023-03-20T07:46:04.327Z,96.81
2023-03-20T07:47:04.244Z,97.17
2023-03-20T07:48:04.362Z,97.28
2023-03-20T07:49:04.254Z,96.77
2023-03-20T07:50:05.755Z,96.87
2023-03-20T07:51:04.246Z,96.87
2023-03-20T07:52:04.197Z,97.23
2023-03-20T07:53:04.212Z,95.94
2023-03-20T07:54:04.191Z,96.10
2023-03-20T07:55:04.215Z,96.00
2023-03-20T07:56:04.458Z,95.79
2023-03-20T07:57:04.123Z,95.90
2023-03-20T07:58:04.433Z,95.49
2023-03-20T07:59:04.140Z,95.28
2023-03-20T08:00:04.121Z,94.36
2023-03-20T08:01:04.292Z,94.36
2023-03-20T08:02:04.107Z,94.46
2023-03-20T08:03:04.179Z,94.56
2023-03-20T08:04:04.290Z,93.64
2023-03-20T08:05:04.069Z,94.01
2023-03-20T08:06:04.055Z,94.26
2023-03-20T08:07:04.035Z,94.01
2023-03-20T08:08:04.005Z,94.32
2023-03-20T08:09:04.011Z,94.32
2023-03-20T08:10:03.988Z,94.42
2023-03-20T08:11:04.216Z,93.80
2023-03-20T08:12:03.994Z,93.39
2023-03-20T08:13:03.983Z,93.19
2023-03-20T08:14:03.981Z,92.88
2023-03-20T08:15:03.946Z,93.15
2023-03-20T08:16:03.941Z,92.74
2023-03-20T08:17:14.437Z,93.60
2023-03-20T08:18:04.972Z,92.02
2023-03-20T08:19:04.124Z,92.43
2023-03-20T08:20:03.881Z,93.55
2023-03-20T08:21:03.868Z,93.25
2023-03-20T08:22:03.985Z,93.15
2023-03-20T08:23:03.893Z,92.02
2023-03-20T08:24:03.972Z,92.63
2023-03-20T08:25:03.952Z,92.79
2023-03-20T08:26:03.904Z,92.49
2023-03-20T08:27:03.994Z,91.46
2023-03-20T08:28:03.810Z,90.75
2023-03-20T08:29:12.623Z,90.84
2023-03-20T08:30:03.810Z,91.16
2023-03-20T08:31:03.839Z,91.56
2023-03-20T08:32:03.862Z,91.36
2023-03-20T08:33:03.926Z,90.34
2023-03-20T08:34:03.741Z,90.84
2023-03-20T08:35:03.728Z,90.30
2023-03-20T08:36:03.770Z,89.62
2023-03-20T08:37:03.770Z,89.27
2023-03-20T08:38:03.698Z,88.96
2023-03-20T08:39:03.738Z,88.86
2023-03-20T08:40:03.665Z,89.27
2023-03-20T08:41:03.661Z,89.83
2023-03-20T08:42:03.659Z,89.98
2023-03-20T08:43:03.656Z,89.17
2023-03-20T08:44:03.704Z,88.92
2023-03-20T08:45:03.627Z,88.82
2023-03-20T08:46:03.650Z,88.51
2023-03-20T08:47:03.599Z,87.70
2023-03-20T08:48:03.575Z,87.43
2023-03-20T08:49:03.664Z,88.04
2023-03-20T08:50:03.558Z,88.20
2023-03-20T08:51:03.565Z,88.76
2023-03-20T08:52:03.563Z,88.41
2023-03-20T08:53:03.576Z,88.71
2023-03-20T08:54:03.551Z,89.03
2023-03-20T08:55:03.497Z,88.92
2023-03-20T08:56:03.501Z,87.90
2023-03-20T08:57:03.470Z,88.10
2023-03-20T08:58:03.463Z,88.10
2023-03-20T08:59:03.502Z,88.10
2023-03-20T09:00:03.439Z,88.20
2023-03-20T09:01:03.469Z,88.10
2023-03-20T09:02:03.486Z,88.00
2023-03-20T09:03:03.440Z,88.10
2023-03-20T09:04:03.400Z,88.62
2023-03-20T09:05:03.461Z,87.70
2023-03-20T09:06:03.361Z,88.41
2023-03-20T09:07:03.378Z,88.71
2023-03-20T09:08:03.372Z,88.62
2023-03-20T09:09:03.381Z,88.00
2023-03-20T09:10:03.391Z,87.70
2023-03-20T09:11:03.306Z,88.06
2023-03-20T09:12:03.447Z,88.00
2023-03-20T09:13:15.514Z,87.90
2023-03-20T09:14:04.317Z,88.41
2023-03-20T09:15:03.291Z,88.88
2023-03-20T09:16:03.351Z,88.92
2023-03-20T09:17:03.304Z,89.12
2023-03-20T09:18:04.121Z,89.53
2023-03-20T09:19:03.235Z,89.53
2023-03-20T09:20:03.243Z,89.50
2023-03-20T09:21:03.208Z,89.59
2023-03-20T09:22:03.252Z,89.39
2023-03-20T09:23:03.252Z,89.50
2023-03-20T09:24:03.177Z,89.90
2023-03-20T09:25:03.212Z,88.88
2023-03-20T09:26:03.145Z,89.03
2023-03-20T09:27:03.814Z,89.50
2023-03-20T09:28:03.147Z,89.59
2023-03-20T09:29:03.110Z,89.50
2023-03-20T09:30:03.171Z,88.71
2023-03-20T09:31:03.180Z,89.59
2023-03-20T09:32:03.088Z,88.88
2023-03-20T09:33:03.141Z,88.57
2023-03-20T09:34:03.055Z,88.17
2023-03-20T09:35:03.074Z,88.78
2023-03-20T09:36:03.204Z,88.17
2023-03-20T09:37:03.194Z,88.47
2023-03-20T09:38:03.020Z,88.47
2023-03-20T09:39:03.058Z,88.12
2023-03-20T09:40:02.995Z,87.82
2023-03-20T09:41:03.004Z,88.29
2023-03-20T09:42:02.997Z,87.88
2023-03-20T09:43:02.954Z,85.94
2023-03-20T09:44:02.971Z,86.35
2023-03-20T09:45:02.962Z,87.06
2023-03-20T09:46:03.002Z,86.76
2023-03-20T09:47:18.894Z,87.23
2023-03-20T09:48:03.925Z,85.69
2023-03-20T09:49:02.934Z,85.59
2023-03-20T09:50:02.910Z,85.38
2023-03-20T09:51:02.866Z,85.38
2023-03-20T09:52:02.874Z,84.88
2023-03-20T09:53:02.916Z,84.77
2023-03-20T09:54:02.922Z,83.81
2023-03-20T09:55:02.885Z,84.22
2023-03-20T09:56:02.832Z,82.08
2023-03-20T09:57:02.959Z,81.98
2023-03-20T09:58:02.913Z,81.60
2023-03-20T09:59:02.807Z,82.53
2023-03-20T10:00:02.818Z,82.39
2023-03-20T10:01:02.761Z,82.28
2023-03-20T10:02:02.755Z,82.69
2023-03-20T10:03:03.031Z,82.59
2023-03-20T10:04:02.818Z,83.10
2023-03-20T10:05:03.217Z,82.59
2023-03-20T10:06:02.748Z,82.69
2023-03-20T10:07:02.701Z,83.40
2023-03-20T10:08:03.028Z,81.87
2023-03-20T10:09:02.664Z,82.28
2023-03-20T10:10:02.679Z,82.24
2023-03-20T10:11:02.687Z,81.63
2023-03-20T10:12:02.695Z,81.73
2023-03-20T10:13:02.646Z,82.45
2023-03-20T10:14:02.631Z,82.04
2023-03-20T10:15:02.605Z,82.65
2023-03-20T10:16:03.499Z,82.69
2023-03-20T10:17:02.572Z,82.79
2023-03-20T10:18:02.624Z,82.79
2023-03-20T10:19:02.578Z,82.28
2023-03-20T10:20:02.623Z,82.69
2023-03-20T10:21:02.553Z,82.59
2023-03-20T10:22:02.669Z,82.32
2023-03-20T10:23:02.510Z,83.14
2023-03-20T10:24:02.530Z,82.79
2023-03-20T10:25:02.526Z,83.81
2023-03-20T10:26:02.511Z,83.40
2023-03-20T10:27:02.500Z,83.81
2023-03-20T10:28:02.508Z,84.08
2023-03-20T10:29:02.505Z,83.47
2023-03-20T10:30:02.461Z,82.86
2023-03-20T10:31:02.550Z,82.51
2023-03-20T10:32:02.455Z,81.90
2023-03-20T10:33:02.639Z,81.09
2023-03-20T10:34:02.383Z,80.78
2023-03-20T10:35:02.522Z,80.27
2023-03-20T10:36:02.425Z,80.98
2023-03-20T10:37:02.357Z,80.88
2023-03-20T10:38:02.364Z,79.75
2023-03-20T10:39:02.593Z,80.16
2023-03-20T10:40:02.323Z,79.66
2023-03-20T10:41:02.369Z,80.68
2023-03-20T10:42:02.361Z,80.78
2023-03-20T10:43:02.313Z,80.16
2023-03-20T10:44:02.395Z,79.32
2023-03-20T10:45:02.302Z,80.27
2023-03-20T10:46:02.314Z,79.00
2023-03-20T10:47:02.292Z,78.19
2023-03-20T10:48:02.253Z,78.39
2023-03-20T10:49:02.230Z,77.37
2023-03-20T10:50:02.551Z,78.19
2023-03-20T10:51:02.291Z,78.19
2023-03-20T10:52:02.298Z,77.37
2023-03-20T10:53:02.215Z,77.44
2023-03-20T10:54:02.170Z,77.24
2023-03-20T10:55:02.228Z,78.26
2023-03-20T10:56:02.224Z,78.26
2023-03-20T10:57:02.194Z,77.95
2023-03-20T10:58:02.183Z,76.12
2023-03-20T10:59:02.106Z,75.71
2023-03-20T11:00:02.151Z,75.37
2023-03-20T11:01:02.200Z,75.71
2023-03-20T11:02:02.108Z,75.30
2023-03-20T11:03:02.071Z,75.10
2023-03-20T11:04:02.212Z,75.20
2023-03-20T11:05:02.048Z,75.60
2023-03-20T11:06:09.723Z,75.51
2023-03-20T11:07:03.119Z,75.40
2023-03-20T11:08:02.017Z,75.98
2023-03-20T11:09:02.078Z,75.20
2023-03-20T11:10:02.014Z,74.58
2023-03-20T11:11:01.984Z,74.58
2023-03-20T11:12:02.091Z,74.49
2023-03-20T11:13:01.996Z,75.30
2023-03-20T11:14:01.947Z,75.51
2023-03-20T11:15:01.958Z,75.85
2023-03-20T11:16:01.966Z,75.54
2023-03-20T11:17:01.997Z,76.05
2023-03-20T11:18:01.930Z,76.76
2023-03-20T11:19:03.660Z,77.27
2023-03-20T11:20:02.010Z,76.05
2023-03-20T11:21:01.942Z,76.25
2023-03-20T11:22:01.897Z,77.48
2023-03-20T11:23:02.013Z,76.66
2023-03-20T11:24:01.869Z,77.37
2023-03-20T11:25:01.908Z,77.37
2023-03-20T11:26:01.832Z,77.48
2023-03-20T11:27:02.290Z,77.27
2023-03-20T11:28:01.832Z,77.17
2023-03-20T11:29:01.905Z,77.17
2023-03-20T11:30:01.805Z,77.17
2023-03-20T11:31:04.850Z,77.17
2023-03-20T11:32:01.788Z,77.41
2023-03-20T11:33:01.776Z,77.48
2023-03-20T11:34:01.727Z,77.31
2023-03-20T11:35:01.785Z,78.30
2023-03-20T11:36:01.792Z,78.33
2023-03-20T11:37:10.259Z,78.30
2023-03-20T11:38:02.678Z,77.41
2023-03-20T11:39:01.738Z,77.62
2023-03-20T11:40:01.665Z,78.02
2023-03-20T11:41:01.717Z,78.43
2023-03-20T11:42:01.686Z,77.68
2023-03-20T11:43:01.636Z,78.19
2023-03-20T11:44:01.638Z,77.78
2023-03-20T11:45:01.609Z,77.07
2023-03-20T11:46:01.673Z,77.78
2023-03-20T11:47:01.676Z,77.48
2023-03-20T11:48:03.886Z,77.07
2023-03-20T11:49:01.765Z,76.56
2023-03-20T11:50:01.610Z,77.07
2023-03-20T11:51:01.593Z,76.66
2023-03-20T11:52:01.537Z,76.76
2023-03-20T11:53:01.543Z,77.07
2023-03-20T11:54:01.515Z,77.27
2023-03-20T11:55:01.544Z,77.07
2023-03-20T11:56:01.482Z,77.37
2023-03-20T11:57:01.498Z,76.76
2023-03-20T11:58:01.481Z,77.48
2023-03-20T11:59:01.483Z,76.66
2023-03-20T12:00:01.446Z,77.27
2023-03-20T12:01:01.440Z,76.32
2023-03-20T12:02:01.512Z,76.53
2023-03-20T12:03:01.417Z,75.51
2023-03-20T12:04:01.477Z,74.18
2023-03-20T12:05:01.374Z,74.79
2023-03-20T12:06:01.368Z,74.69
2023-03-20T12:07:01.353Z,74.90
2023-03-20T12:08:01.548Z,74.90
2023-03-20T12:09:01.362Z,73.88
2023-03-20T12:10:01.353Z,74.18
2023-03-20T12:11:01.359Z,74.55
2023-03-20T12:12:01.381Z,74.55
2023-03-20T12:13:01.290Z,74.65
2023-03-20T12:14:01.332Z,74.86
2023-03-20T12:15:01.295Z,74.41
2023-03-20T12:16:01.279Z,73.80
2023-03-20T12:17:01.254Z,73.33
2023-03-20T12:18:01.260Z,74.41
2023-03-20T12:19:01.262Z,72.78
2023-03-20T12:20:01.360Z,72.48
2023-03-20T12:21:01.230Z,72.58
2023-03-20T12:22:01.191Z,73.30
2023-03-20T12:23:01.189Z,73.40
2023-03-20T12:24:01.190Z,72.99
2023-03-20T12:25:01.205Z,72.28
2023-03-20T12:26:01.168Z,72.48
2023-03-20T12:27:01.236Z,72.78
2023-03-20T12:28:01.297Z,72.17
2023-03-20T12:29:01.123Z,72.48
2023-03-20T12:30:01.148Z,72.69
2023-03-20T12:31:01.215Z,72.21
2023-03-20T12:32:01.103Z,72.08
2023-03-20T12:33:01.202Z,72.48
2023-03-20T12:34:01.155Z,72.48
2023-03-20T12:35:01.076Z,72.28
2023-03-20T12:36:01.082Z,72.17
2023-03-20T12:37:01.052Z,72.38
2023-03-20T12:38:01.045Z,72.69
2023-03-20T12:39:01.007Z,72.17
2023-03-20T12:40:01.049Z,72.38
2023-03-20T12:41:01.006Z,71.87
2023-03-20T12:42:00.982Z,71.77
2023-03-20T12:43:01.001Z,71.56
2023-03-20T12:44:00.985Z,71.33
2023-03-20T12:45:00.942Z,70.62
2023-03-20T12:46:00.945Z,70.75
2023-03-20T12:47:00.907Z,70.04
2023-03-20T12:48:00.955Z,70.65
2023-03-20T12:49:00.917Z,70.65
2023-03-20T12:50:00.914Z,70.86
2023-03-20T12:51:00.965Z,70.86
2023-03-20T12:52:00.872Z,71.19